Time;durP1;ratioP1;P1;durP2;ratioP2;P2;SDS_P1;SDS_P2;PMS_P1;PMS_P2;Temp;Humidity;BMP_temperature;BMP_pressure;BME280_temperature;BME280_humidity;BME280_pressure;Samples;Min_cycle;Max_cycle;Signal;HPM_P1;HPM_P2
2023/03/26 00:01:04;;;;;;;;;;;24.10;99.90;;;;;;5079100;28;19916;-68
2023/03/26 00:03:32;;;;;;;;;;;24.20;99.90;;;;;;5080360;28;19995;-68
2023/03/26 00:06:03;;;;;;;;;;;24.30;99.90;;;;;;5079129;28;20002;-69
2023/03/26 00:08:29;;;;;;;;;;;24.30;99.90;;;;;;5080685;28;19908;-68
2023/03/26 00:10:56;;;;;;;;;;;24.50;99.90;;;;;;5078446;28;19908;-68
2023/03/26 00:13:23;;;;;;;;;;;24.50;99.90;;;;;;5080466;28;19961;-69
2023/03/26 00:15:49;;;;;;;;;;;24.60;99.90;;;;;;5078894;28;20292;-68
2023/03/26 00:18:18;;;;;;;;;;;24.60;99.90;;;;;;5080435;28;20352;-69
2023/03/26 00:20:45;;;;;;;;;;;24.60;99.90;;;;;;5079969;28;20316;-69
2023/03/26 00:23:12;;;;;;;;;;;24.70;99.90;;;;;;5079498;28;20331;-67
2023/03/26 00:25:40;;;;;;;;;;;24.80;99.90;;;;;;5079582;28;19990;-68
2023/03/26 00:28:07;;;;;;;;;;;24.90;99.90;;;;;;5078388;28;19908;-68
2023/03/26 00:30:40;;;;;;;;;;;25.10;99.90;;;;;;5080180;28;19909;-68
2023/03/26 00:33:07;;;;;;;;;;;25.20;99.90;;;;;;5078838;28;20095;-68
2023/03/26 00:35:37;;;;;;;;;;;25.30;99.90;;;;;;5079971;28;19947;-69
2023/03/26 00:38:04;;;;;;;;;;;25.20;99.90;;;;;;5078572;28;19924;-68
2023/03/26 00:40:35;;;;;;;;;;;25.30;99.90;;;;;;5080272;28;19916;-68
2023/03/26 00:43:17;;;;;;;;;;;25.30;99.90;;;;;;5078112;28;20220;-68
2023/03/26 00:45:47;;;;;;;;;;;25.50;99.90;;;;;;5079585;28;19912;-68
2023/03/26 00:48:15;;;;;;;;;;;25.60;99.90;;;;;;5078677;28;19909;-68
2023/03/26 00:50:43;;;;;;;;;;;25.70;99.50;;;;;;5079147;28;20064;-69
2023/03/26 00:53:12;;;;;;;;;;;25.60;99.10;;;;;;5078499;28;19908;-68
2023/03/26 00:55:40;;;;;;;;;;;25.60;99.30;;;;;;5079484;28;19908;-69
2023/03/26 00:58:10;;;;;;;;;;;25.60;99.30;;;;;;5078303;28;19908;-69
2023/03/26 01:00:47;;;;;;;;;;;25.70;99.50;;;;;;5079738;28;19912;-68
2023/03/26 01:03:14;;;;;;;;;;;25.70;99.30;;;;;;5077886;28;19908;-69
2023/03/26 01:05:43;;;;;;;;;;;25.80;99.60;;;;;;5079666;28;19996;-70
2023/03/26 01:08:15;;;;;;;;;;;26.20;99.70;;;;;;5078451;28;19962;-69
2023/03/26 01:10:42;;;;;;;;;;;26.50;98.70;;;;;;5079488;28;19908;-70
2023/03/26 01:13:09;;;;;;;;;;;26.80;98.20;;;;;;5078111;28;19909;-69
2023/03/26 01:15:37;;;;;;;;;;;26.80;95.80;;;;;;5079808;28;20444;-69
2023/03/26 01:18:08;;;;;;;;;;;26.70;96.20;;;;;;5077193;28;19909;-68
2023/03/26 01:20:37;;;;;;;;;;;26.70;96.40;;;;;;5079632;28;19948;-69
2023/03/26 01:23:05;;;;;;;;;;;26.70;97.10;;;;;;5076942;28;19912;-70
2023/03/26 01:25:36;;;;;;;;;;;27.00;97.30;;;;;;5082179;28;20069;-70
2023/03/26 01:28:07;;;;;;;;;;;27.10;97.10;;;;;;5081511;28;19908;-69
2023/03/26 01:30:48;;;;;;;;;;;27.30;96.10;;;;;;5083689;28;19912;-69
2023/03/26 01:33:21;;;;;;;;;;;27.50;96.00;;;;;;5082162;28;19918;-70
2023/03/26 01:35:50;;;;;;;;;;;27.70;96.50;;;;;;5083187;28;19919;-69
2023/03/26 01:38:26;;;;;;;;;;;27.70;96.60;;;;;;5081881;28;20170;-70
2023/03/26 01:40:53;;;;;;;;;;;27.70;95.80;;;;;;5082744;28;19938;-69
2023/03/26 01:43:22;;;;;;;;;;;27.80;96.30;;;;;;5081881;28;20581;-71
2023/03/26 01:45:50;;;;;;;;;;;27.70;96.60;;;;;;5082828;28;19914;-70
2023/03/26 01:48:17;;;;;;;;;;;27.70;96.10;;;;;;5081920;28;19908;-70
2023/03/26 01:50:43;;;;;;;;;;;27.50;96.10;;;;;;5083659;28;19954;-68
2023/03/26 01:53:12;;;;;;;;;;;27.20;96.00;;;;;;5080886;28;19908;-68
2023/03/26 01:55:42;;;;;;;;;;;27.00;97.10;;;;;;5083225;28;20018;-69
2023/03/26 01:58:27;;;;;;;;;;;27.40;97.00;;;;;;5080517;28;19912;-69
2023/03/26 02:00:53;;;;;;;;;;;27.50;96.50;;;;;;5082439;28;20403;-69
2023/03/26 02:03:29;;;;;;;;;;;27.10;95.30;;;;;;5081689;28;19908;-69
2023/03/26 02:05:56;;;;;;;;;;;27.00;96.10;;;;;;5082133;28;19915;-69
2023/03/26 02:08:34;;;;;;;;;;;27.10;96.00;;;;;;5081464;28;19908;-70
2023/03/26 02:11:09;;;;;;;;;;;26.90;96.90;;;;;;5082581;28;19999;-68
2023/03/26 02:13:37;;;;;;;;;;;27.00;96.50;;;;;;5083278;28;19935;-68
2023/03/26 02:16:05;;;;;;;;;;;27.10;96.80;;;;;;5081876;28;19908;-70
2023/03/26 02:18:38;;;;;;;;;;;27.20;96.80;;;;;;5082508;28;19908;-69
2023/03/26 02:21:08;;;;;;;;;;;27.00;96.30;;;;;;5081662;28;19916;-69
2023/03/26 02:23:36;;;;;;;;;;;27.00;96.70;;;;;;5082542;28;20045;-68
2023/03/26 02:26:09;;;;;;;;;;;27.00;96.30;;;;;;5081699;28;20015;-69
2023/03/26 02:28:36;;;;;;;;;;;26.90;95.70;;;;;;5082516;28;19908;-69
2023/03/26 02:31:03;;;;;;;;;;;26.70;96.90;;;;;;5081998;28;20349;-69
2023/03/26 02:33:31;;;;;;;;;;;26.80;96.50;;;;;;5080505;28;20556;-70
2023/03/26 02:36:00;;;;;;;;;;;26.70;96.50;;;;;;5081105;28;19908;-69
2023/03/26 02:38:28;;;;;;;;;;;27.00;96.80;;;;;;5080668;28;20523;-69
2023/03/26 02:40:55;;;;;;;;;;;27.00;96.60;;;;;;5082443;28;20022;-69
2023/03/26 02:43:21;;;;;;;;;;;27.10;96.00;;;;;;5080562;28;19908;-68
2023/03/26 02:45:48;;;;;;;;;;;27.30;96.00;;;;;;5082385;28;19973;-68
2023/03/26 02:48:15;;;;;;;;;;;27.30;96.30;;;;;;5080365;28;20368;-71
2023/03/26 02:50:41;;;;;;;;;;;27.60;96.60;;;;;;5082632;28;19908;-71
2023/03/26 02:53:08;;;;;;;;;;;27.70;95.60;;;;;;5081493;28;19908;-67
2023/03/26 02:55:35;;;;;;;;;;;28.00;95.90;;;;;;5080906;28;20072;-68
2023/03/26 02:58:01;;;;;;;;;;;28.20;96.00;;;;;;5081333;28;19908;-70
2023/03/26 03:00:28;;;;;;;;;;;28.10;95.60;;;;;;5080256;28;19908;-68
2023/03/26 03:02:56;;;;;;;;;;;28.00;95.80;;;;;;5082320;28;19965;-68
2023/03/26 03:05:27;;;;;;;;;;;27.80;95.50;;;;;;5079244;28;19915;-69
2023/03/26 03:07:56;;;;;;;;;;;27.50;96.20;;;;;;5081995;28;20356;-68
2023/03/26 03:10:24;;;;;;;;;;;27.40;96.80;;;;;;5079811;28;20237;-68
2023/03/26 03:12:51;;;;;;;;;;;27.60;96.60;;;;;;5081812;28;20284;-68
2023/03/26 03:15:18;;;;;;;;;;;27.50;97.20;;;;;;5080032;28;20048;-70
2023/03/26 03:17:44;;;;;;;;;;;27.80;96.80;;;;;;5082243;28;19951;-68
2023/03/26 03:20:12;;;;;;;;;;;28.20;96.40;;;;;;5081042;28;20524;-69
2023/03/26 03:22:39;;;;;;;;;;;28.60;96.00;;;;;;5080407;28;19923;-68
2023/03/26 03:25:13;;;;;;;;;;;28.50;96.00;;;;;;5081508;28;20015;-68
2023/03/26 03:27:41;;;;;;;;;;;28.50;95.60;;;;;;5080158;28;20178;-69
2023/03/26 03:30:09;;;;;;;;;;;28.30;95.10;;;;;;5080702;28;19908;-69
2023/03/26 03:32:36;;;;;;;;;;;28.30;95.10;;;;;;5079649;28;19955;-70
2023/03/26 03:35:03;;;;;;;;;;;28.30;95.40;;;;;;5081202;28;20337;-70
2023/03/26 03:37:29;;;;;;;;;;;28.00;95.80;;;;;;5079232;28;20007;-69
2023/03/26 03:39:56;;;;;;;;;;;27.60;96.40;;;;;;5081697;28;19912;-69
2023/03/26 03:42:23;;;;;;;;;;;27.20;97.20;;;;;;5079718;28;19916;-69
2023/03/26 03:44:49;;;;;;;;;;;27.00;97.60;;;;;;5081227;28;20421;-68
2023/03/26 03:47:16;;;;;;;;;;;26.50;98.10;;;;;;5080264;28;20378;-69
2023/03/26 03:49:43;;;;;;;;;;;26.20;98.50;;;;;;5079772;28;20136;-69
2023/03/26 03:52:09;;;;;;;;;;;26.00;99.20;;;;;;5080420;28;20111;-69
2023/03/26 03:54:36;;;;;;;;;;;26.00;99.70;;;;;;5079471;28;19912;-69
2023/03/26 03:57:03;;;;;;;;;;;25.70;99.90;;;;;;5081088;28;19908;-69
2023/03/26 03:59:29;;;;;;;;;;;25.60;99.90;;;;;;5078912;28;20575;-69
2023/03/26 04:01:56;;;;;;;;;;;25.40;99.90;;;;;;5080757;28;19920;-69
2023/03/26 04:04:23;;;;;;;;;;;25.30;99.90;;;;;;5079516;28;19909;-69
2023/03/26 04:06:51;;;;;;;;;;;25.30;99.90;;;;;;5080202;28;20357;-69
2023/03/26 04:09:18;;;;;;;;;;;25.30;99.90;;;;;;5079618;28;20242;-69
2023/03/26 04:11:44;;;;;;;;;;;25.40;99.90;;;;;;5078919;28;20159;-69
2023/03/26 04:14:11;;;;;;;;;;;25.50;99.90;;;;;;5080275;28;19908;-69
2023/03/26 04:16:37;;;;;;;;;;;25.60;99.90;;;;;;5080168;28;19912;-69
2023/03/26 04:19:04;;;;;;;;;;;25.60;99.90;;;;;;5079369;28;19999;-70
2023/03/26 04:21:31;;;;;;;;;;;25.60;99.90;;;;;;5079715;28;19970;-70
2023/03/26 04:24:00;;;;;;;;;;;25.40;99.90;;;;;;5079078;28;20387;-68
2023/03/26 04:26:29;;;;;;;;;;;25.30;99.90;;;;;;5079718;28;19958;-69
2023/03/26 04:28:59;;;;;;;;;;;25.20;99.90;;;;;;5078736;28;19953;-69
2023/03/26 04:31:29;;;;;;;;;;;25.20;99.90;;;;;;5079831;28;19908;-69
2023/03/26 04:33:58;;;;;;;;;;;25.30;99.90;;;;;;5078761;28;19963;-68
2023/03/26 04:36:27;;;;;;;;;;;25.30;99.90;;;;;;5079926;28;19916;-69
2023/03/26 04:38:54;;;;;;;;;;;25.30;99.90;;;;;;5078492;28;20122;-68
2023/03/26 04:41:26;;;;;;;;;;;25.20;99.90;;;;;;5079127;28;19922;-69
2023/03/26 04:43:53;;;;;;;;;;;25.10;99.90;;;;;;5078460;28;19958;-68
2023/03/26 04:46:21;;;;;;;;;;;25.00;99.90;;;;;;5079700;28;20322;-71
2023/03/26 04:48:48;;;;;;;;;;;24.90;99.90;;;;;;5079215;28;20132;-70
2023/03/26 04:51:18;;;;;;;;;;;24.80;99.90;;;;;;5079872;28;19908;-68
2023/03/26 04:53:51;;;;;;;;;;;24.70;99.90;;;;;;5079935;28;19909;-69
2023/03/26 04:56:17;;;;;;;;;;;24.80;99.90;;;;;;5080007;28;19912;-69
2023/03/26 04:58:46;;;;;;;;;;;24.80;99.90;;;;;;5079562;28;19908;-72
2023/03/26 05:01:15;;;;;;;;;;;24.80;99.90;;;;;;5078678;28;19975;-68
2023/03/26 05:03:44;;;;;;;;;;;24.70;99.90;;;;;;5079444;28;20357;-69
2023/03/26 05:06:11;;;;;;;;;;;24.60;99.90;;;;;;5078413;28;19908;-68
2023/03/26 05:08:38;;;;;;;;;;;24.50;99.90;;;;;;5079418;28;19947;-69
2023/03/26 05:11:10;;;;;;;;;;;24.60;99.90;;;;;;5078503;28;19966;-70
2023/03/26 05:13:37;;;;;;;;;;;24.60;99.90;;;;;;5079776;28;20137;-69
2023/03/26 05:16:04;;;;;;;;;;;24.50;99.90;;;;;;5078470;28;19998;-69
2023/03/26 05:18:31;;;;;;;;;;;24.50;99.90;;;;;;5079479;28;19912;-68
2023/03/26 05:21:00;;;;;;;;;;;24.40;99.90;;;;;;5077718;28;20279;-70
2023/03/26 05:23:27;;;;;;;;;;;24.40;99.90;;;;;;5078705;28;19962;-69
2023/03/26 05:25:54;;;;;;;;;;;24.50;99.90;;;;;;5079065;28;19912;-69
2023/03/26 05:28:23;;;;;;;;;;;24.50;99.90;;;;;;5079555;28;19915;-70
2023/03/26 05:30:53;;;;;;;;;;;24.50;99.90;;;;;;5079529;28;19908;-69
2023/03/26 05:33:20;;;;;;;;;;;24.50;99.90;;;;;;5079031;28;19915;-68
2023/03/26 05:35:48;;;;;;;;;;;24.60;99.90;;;;;;5079099;28;19915;-68
2023/03/26 05:38:14;;;;;;;;;;;24.70;99.90;;;;;;5077304;28;19916;-67
2023/03/26 05:40:41;;;;;;;;;;;24.80;99.90;;;;;;5079247;28;19967;-69
2023/03/26 05:43:08;;;;;;;;;;;24.80;99.90;;;;;;5078191;28;19919;-67
2023/03/26 05:45:34;;;;;;;;;;;24.80;99.90;;;;;;5079286;28;20087;-68
2023/03/26 05:48:01;;;;;;;;;;;24.80;99.90;;;;;;5077244;28;19908;-68
2023/03/26 05:50:28;;;;;;;;;;;24.80;99.90;;;;;;5079239;28;19915;-68
2023/03/26 05:52:54;;;;;;;;;;;24.80;99.90;;;;;;5078611;28;20288;-68
2023/03/26 05:55:21;;;;;;;;;;;24.70;99.90;;;;;;5079049;28;19908;-67
2023/03/26 05:57:48;;;;;;;;;;;24.70;99.90;;;;;;5078423;28;19931;-69
2023/03/26 06:00:15;;;;;;;;;;;24.60;99.90;;;;;;5077764;28;19919;-68
2023/03/26 06:02:41;;;;;;;;;;;24.60;99.90;;;;;;5079311;28;19962;-69
2023/03/26 06:05:08;;;;;;;;;;;24.60;99.90;;;;;;5078119;28;19919;-68
2023/03/26 06:07:35;;;;;;;;;;;24.60;99.90;;;;;;5078790;28;19916;-68
2023/03/26 06:10:02;;;;;;;;;;;24.90;99.90;;;;;;5060244;28;19908;-69
2023/03/26 06:12:29;;;;;;;;;;;25.20;99.90;;;;;;5082386;28;20007;-71
2023/03/26 06:14:55;;;;;;;;;;;25.80;99.90;;;;;;5083118;28;20006;-67
2023/03/26 06:17:22;;;;;;;;;;;26.20;99.90;;;;;;5081395;28;20258;-69
2023/03/26 06:19:48;;;;;;;;;;;26.30;99.90;;;;;;5081692;28;19915;-71
2023/03/26 06:22:15;;;;;;;;;;;26.40;99.90;;;;;;5085888;28;19928;-69
2023/03/26 06:24:42;;;;;;;;;;;26.20;99.90;;;;;;5103076;28;19914;-69
2023/03/26 06:27:08;;;;;;;;;;;26.00;99.90;;;;;;5092141;28;19955;-70
2023/03/26 06:29:35;;;;;;;;;;;26.00;99.90;;;;;;5089400;28;20296;-69
2023/03/26 06:32:02;;;;;;;;;;;26.10;99.90;;;;;;5095477;28;20368;-69
2023/03/26 06:34:29;;;;;;;;;;;26.10;99.90;;;;;;5071794;28;20018;-71
2023/03/26 06:36:55;;;;;;;;;;;26.00;99.90;;;;;;5081899;28;19919;-68
2023/03/26 06:39:22;;;;;;;;;;;26.00;99.90;;;;;;5089613;28;19920;-69
2023/03/26 06:41:49;;;;;;;;;;;25.90;99.90;;;;;;5102649;28;19919;-68
2023/03/26 06:44:15;;;;;;;;;;;25.80;99.90;;;;;;5092992;28;20368;-68
2023/03/26 06:46:42;;;;;;;;;;;25.50;99.90;;;;;;5100997;28;20154;-69
2023/03/26 06:49:09;;;;;;;;;;;25.30;99.90;;;;;;5097944;28;20046;-69
2023/03/26 06:51:37;;;;;;;;;;;25.10;99.90;;;;;;5093521;28;19916;-68
2023/03/26 06:54:04;;;;;;;;;;;24.80;99.90;;;;;;5101613;28;19908;-69
2023/03/26 06:56:30;;;;;;;;;;;24.50;99.90;;;;;;5091814;28;19912;-69
2023/03/26 06:58:57;;;;;;;;;;;24.30;99.90;;;;;;5090210;28;20411;-68
2023/03/26 07:01:24;;;;;;;;;;;24.20;99.90;;;;;;5089109;28;20014;-69
2023/03/26 07:03:50;;;;;;;;;;;24.10;99.90;;;;;;5098395;28;19918;-69
2023/03/26 07:06:17;;;;;;;;;;;24.00;99.90;;;;;;5096806;27;20427;-68
2023/03/26 07:08:44;;;;;;;;;;;24.10;99.90;;;;;;5096060;28;19911;-70
2023/03/26 07:11:10;;;;;;;;;;;24.10;99.90;;;;;;5100830;28;19907;-69
2023/03/26 07:13:38;;;;;;;;;;;24.20;99.90;;;;;;5094900;28;19915;-69
2023/03/26 07:16:06;;;;;;;;;;;24.30;99.90;;;;;;5080895;28;19961;-69
2023/03/26 07:18:32;;;;;;;;;;;24.30;99.90;;;;;;5079942;28;19912;-69
2023/03/26 07:20:59;;;;;;;;;;;24.30;99.90;;;;;;5087981;28;19916;-69
2023/03/26 07:23:26;;;;;;;;;;;24.20;99.90;;;;;;5100083;28;20387;-68
2023/03/26 07:25:53;;;;;;;;;;;24.20;99.90;;;;;;5101711;28;19915;-69
2023/03/26 07:28:26;;;;;;;;;;;24.10;99.90;;;;;;5100421;28;19908;-68
2023/03/26 07:31:11;;;;;;;;;;;24.10;99.90;;;;;;5100990;28;20391;-67
2023/03/26 07:34:03;;;;;;;;;;;24.00;99.90;;;;;;5099404;28;19915;-67
2023/03/26 07:36:30;;;;;;;;;;;24.00;99.90;;;;;;5072361;28;19908;-69
2023/03/26 07:38:59;;;;;;;;;;;23.80;99.90;;;;;;5101089;28;19988;-68
2023/03/26 07:41:29;;;;;;;;;;;23.70;99.90;;;;;;5100531;28;19923;-69
2023/03/26 07:44:01;;;;;;;;;;;23.60;99.90;;;;;;5101192;28;20060;-68
2023/03/26 07:46:34;;;;;;;;;;;23.50;99.90;;;;;;5098004;28;19916;-68
2023/03/26 07:49:03;;;;;;;;;;;23.50;99.90;;;;;;5089226;28;20328;-68
2023/03/26 07:51:30;;;;;;;;;;;23.40;99.90;;;;;;5090960;28;19915;-69
2023/03/26 07:53:59;;;;;;;;;;;23.30;99.90;;;;;;5100561;28;19912;-69
2023/03/26 07:56:34;;;;;;;;;;;23.30;99.90;;;;;;5099663;28;19939;-69
2023/03/26 07:59:10;;;;;;;;;;;23.20;99.90;;;;;;5100427;28;19915;-69
2023/03/26 08:01:49;;;;;;;;;;;23.20;99.90;;;;;;5083262;28;20006;-69
2023/03/26 08:04:35;;;;;;;;;;;23.10;99.90;;;;;;5084106;28;19926;-67
2023/03/26 08:07:07;;;;;;;;;;;23.10;99.90;;;;;;5099321;28;20431;-69
2023/03/26 08:09:39;;;;;;;;;;;23.00;99.90;;;;;;5079292;28;19947;-68
2023/03/26 08:12:25;;;;;;;;;;;22.90;99.90;;;;;;5080622;28;19995;-68
2023/03/26 08:15:03;;;;;;;;;;;22.90;99.90;;;;;;5079463;28;19915;-69
2023/03/26 08:17:30;;;;;;;;;;;22.90;99.90;;;;;;5079468;28;19908;-69
2023/03/26 08:20:00;;;;;;;;;;;22.90;99.90;;;;;;5080884;28;19912;-67
2023/03/26 08:22:44;;;;;;;;;;;22.90;99.90;;;;;;5098897;28;19975;-66
2023/03/26 08:25:26;;;;;;;;;;;22.90;99.90;;;;;;5099800;28;20096;-69
2023/03/26 08:28:11;;;;;;;;;;;22.80;99.90;;;;;;5099096;28;20428;-69
2023/03/26 08:30:37;;;;;;;;;;;22.90;99.90;;;;;;5098936;28;20369;-70
2023/03/26 08:33:05;;;;;;;;;;;22.80;99.90;;;;;;5099834;28;19912;-68
2023/03/26 08:35:33;;;;;;;;;;;22.90;99.90;;;;;;5097559;28;20650;-67
2023/03/26 08:38:00;;;;;;;;;;;22.80;99.90;;;;;;5098891;28;20402;-68
2023/03/26 08:40:42;;;;;;;;;;;22.80;99.90;;;;;;5098257;28;19951;-68
2023/03/26 08:43:29;;;;;;;;;;;22.80;99.90;;;;;;5079959;28;20137;-71
2023/03/26 08:46:07;;;;;;;;;;;22.80;99.90;;;;;;5086635;28;19962;-68
2023/03/26 08:48:50;;;;;;;;;;;22.80;99.90;;;;;;5079348;28;20359;-68
2023/03/26 08:51:23;;;;;;;;;;;22.80;99.90;;;;;;5097599;28;19912;-67
2023/03/26 08:53:52;;;;;;;;;;;22.80;99.90;;;;;;5096811;28;20615;-69
2023/03/26 08:56:38;;;;;;;;;;;22.80;99.90;;;;;;5079666;28;19918;-69
2023/03/26 08:59:13;;;;;;;;;;;22.80;99.90;;;;;;5096970;28;19915;-68
2023/03/26 09:02:03;;;;;;;;;;;22.80;99.90;;;;;;5097846;28;19916;-70
2023/03/26 09:04:35;;;;;;;;;;;22.80;99.90;;;;;;5090653;28;20077;-69
2023/03/26 09:07:20;;;;;;;;;;;22.80;99.90;;;;;;5098258;28;19907;-68
2023/03/26 09:10:05;;;;;;;;;;;22.70;99.90;;;;;;5097934;28;19907;-69
2023/03/26 09:12:51;;;;;;;;;;;22.70;99.90;;;;;;5080193;28;19908;-71
2023/03/26 09:15:36;;;;;;;;;;;22.70;99.90;;;;;;5099255;28;20380;-70
2023/03/26 09:18:05;;;;;;;;;;;22.60;99.90;;;;;;5098641;28;19959;-69
2023/03/26 09:20:53;;;;;;;;;;;22.60;99.90;;;;;;5098813;28;19908;-67
2023/03/26 09:23:28;;;;;;;;;;;22.60;99.90;;;;;;5099187;28;20624;-69
2023/03/26 09:26:10;;;;;;;;;;;22.50;99.90;;;;;;5098428;28;20027;-68
2023/03/26 09:28:57;;;;;;;;;;;22.50;99.90;;;;;;5099313;28;20419;-70
2023/03/26 09:31:42;;;;;;;;;;;22.40;99.90;;;;;;5098972;28;19908;-70
2023/03/26 09:34:21;;;;;;;;;;;22.40;99.90;;;;;;5080165;28;20364;-70
2023/03/26 09:36:56;;;;;;;;;;;22.40;99.90;;;;;;5092625;28;20364;-68
2023/03/26 09:39:38;;;;;;;;;;;22.30;99.90;;;;;;5097780;28;19954;-66
2023/03/26 09:42:10;;;;;;;;;;;22.30;99.90;;;;;;5097293;28;19916;-71
2023/03/26 09:44:46;;;;;;;;;;;22.30;99.90;;;;;;5098680;28;19908;-70
2023/03/26 09:47:27;;;;;;;;;;;22.30;99.90;;;;;;5101088;28;20002;-68
2023/03/26 09:49:56;;;;;;;;;;;22.20;99.90;;;;;;5102646;28;20360;-69
2023/03/26 09:52:32;;;;;;;;;;;22.20;99.90;;;;;;5101983;28;19915;-70
2023/03/26 09:55:07;;;;;;;;;;;22.20;99.90;;;;;;5103198;28;19918;-69
2023/03/26 09:57:57;;;;;;;;;;;22.30;99.90;;;;;;5103325;28;20011;-68
2023/03/26 10:00:35;;;;;;;;;;;22.30;99.90;;;;;;5101614;28;20383;-69
2023/03/26 10:03:05;;;;;;;;;;;22.30;99.90;;;;;;5102313;28;19916;-70
2023/03/26 10:05:41;;;;;;;;;;;22.30;99.90;;;;;;5103013;28;20365;-68
2023/03/26 10:08:08;;;;;;;;;;;22.30;99.90;;;;;;5101200;28;19965;-70
2023/03/26 10:10:34;;;;;;;;;;;22.30;99.90;;;;;;5102977;28;20332;-68
2023/03/26 10:13:10;;;;;;;;;;;22.30;99.90;;;;;;5102281;28;19939;-67
2023/03/26 10:15:51;;;;;;;;;;;22.30;99.90;;;;;;5102557;28;20345;-68
2023/03/26 10:18:31;;;;;;;;;;;22.30;99.90;;;;;;5097351;28;20614;-68
2023/03/26 10:21:14;;;;;;;;;;;22.20;99.90;;;;;;5096170;28;19931;-68
2023/03/26 10:24:00;;;;;;;;;;;22.20;99.90;;;;;;5082196;28;19973;-67
2023/03/26 10:26:45;;;;;;;;;;;22.20;99.90;;;;;;5091232;28;19915;-69
2023/03/26 10:29:24;;;;;;;;;;;22.20;99.90;;;;;;5100749;28;19960;-70
2023/03/26 10:31:54;;;;;;;;;;;22.10;99.90;;;;;;5081883;28;20023;-68
2023/03/26 10:34:36;;;;;;;;;;;22.20;99.90;;;;;;5082442;28;20006;-68
2023/03/26 10:37:21;;;;;;;;;;;22.20;99.90;;;;;;5100875;28;20283;-69
2023/03/26 10:39:48;;;;;;;;;;;22.10;99.90;;;;;;5102007;28;20288;-68
2023/03/26 10:42:31;;;;;;;;;;;22.10;99.90;;;;;;5082234;28;19916;-69
2023/03/26 10:45:04;;;;;;;;;;;22.10;99.90;;;;;;5102073;28;20384;-71
2023/03/26 10:47:34;;;;;;;;;;;22.10;99.90;;;;;;5101100;28;19908;-69
2023/03/26 10:50:18;;;;;;;;;;;22.00;99.90;;;;;;5101816;28;19920;-69
2023/03/26 10:52:59;;;;;;;;;;;22.00;99.90;;;;;;5102390;28;20418;-69
2023/03/26 10:55:33;;;;;;;;;;;22.00;99.90;;;;;;5096027;28;19916;-69
2023/03/26 10:58:04;;;;;;;;;;;21.90;99.90;;;;;;5090029;28;20010;-72
2023/03/26 11:00:35;;;;;;;;;;;21.90;99.90;;;;;;5080800;28;19912;-68
2023/03/26 11:03:20;;;;;;;;;;;21.80;99.90;;;;;;5081326;28;19966;-70
2023/03/26 11:06:06;;;;;;;;;;;21.80;99.90;;;;;;5082005;28;20470;-70
2023/03/26 11:08:38;;;;;;;;;;;21.80;99.90;;;;;;5080246;28;20011;-68
2023/03/26 11:11:34;;;;;;;;;;;21.80;99.90;;;;;;5081621;28;19914;-68
2023/03/26 11:14:15;;;;;;;;;;;21.80;99.90;;;;;;5044019;28;19948;-69
2023/03/26 11:16:57;;;;;;;;;;;21.80;99.90;;;;;;5080921;28;19912;-68
2023/03/26 11:19:42;;;;;;;;;;;21.80;99.90;;;;;;5078772;28;19908;-68
2023/03/26 11:22:27;;;;;;;;;;;21.80;99.90;;;;;;5080418;28;20010;-68
2023/03/26 11:24:54;;;;;;;;;;;21.80;99.90;;;;;;5081487;28;19915;-69
2023/03/26 11:27:26;;;;;;;;;;;21.80;99.90;;;;;;5079957;28;19908;-73
2023/03/26 11:29:53;;;;;;;;;;;21.80;99.90;;;;;;5081218;28;19908;-70
2023/03/26 11:32:22;;;;;;;;;;;21.80;99.90;;;;;;5079642;28;19912;-70
2023/03/26 11:35:07;;;;;;;;;;;21.80;99.90;;;;;;5081150;28;19908;-69
2023/03/26 11:37:33;;;;;;;;;;;21.80;99.90;;;;;;5079895;28;20424;-68
2023/03/26 11:40:04;;;;;;;;;;;21.80;99.90;;;;;;5063145;28;20357;-68
2023/03/26 11:42:31;;;;;;;;;;;21.80;99.90;;;;;;5079242;28;19916;-69
2023/03/26 11:45:00;;;;;;;;;;;21.80;99.90;;;;;;5063052;28;19916;-69
2023/03/26 11:47:46;;;;;;;;;;;21.80;99.90;;;;;;5078920;28;19908;-69
2023/03/26 11:50:20;;;;;;;;;;;21.80;99.90;;;;;;5079780;28;20319;-70
2023/03/26 11:52:47;;;;;;;;;;;21.90;99.90;;;;;;5080026;28;19947;-70
2023/03/26 11:55:14;;;;;;;;;;;21.90;99.90;;;;;;5083925;28;19951;-71
2023/03/26 11:57:44;;;;;;;;;;;21.90;99.90;;;;;;5077783;28;20293;-69
2023/03/26 12:00:19;;;;;;;;;;;22.00;99.90;;;;;;5080853;28;19933;-72
2023/03/26 12:02:47;;;;;;;;;;;21.90;99.90;;;;;;5096931;28;19926;-69
2023/03/26 12:05:17;;;;;;;;;;;21.90;99.90;;;;;;5100182;28;19916;-70
2023/03/26 12:07:50;;;;;;;;;;;22.00;99.90;;;;;;5095648;28;20006;-69
2023/03/26 12:10:25;;;;;;;;;;;22.00;99.90;;;;;;5079461;28;19975;-69
2023/03/26 12:12:56;;;;;;;;;;;22.00;99.90;;;;;;5079805;28;19953;-69
2023/03/26 12:15:24;;;;;;;;;;;22.00;99.90;;;;;;5079740;28;20418;-69
2023/03/26 12:17:54;;;;;;;;;;;22.00;99.90;;;;;;5079689;28;19914;-68
2023/03/26 12:20:41;;;;;;;;;;;22.00;99.90;;;;;;5079683;28;19919;-69
2023/03/26 12:23:27;;;;;;;;;;;22.00;99.90;;;;;;5080553;28;19954;-70
2023/03/26 12:26:04;;;;;;;;;;;22.00;99.90;;;;;;5079890;28;19909;-69
2023/03/26 12:28:31;;;;;;;;;;;22.00;99.90;;;;;;5078458;28;19919;-69
2023/03/26 12:31:01;;;;;;;;;;;22.10;99.90;;;;;;5080509;28;19962;-69
2023/03/26 12:33:32;;;;;;;;;;;22.10;99.90;;;;;;5079259;28;19908;-70
2023/03/26 12:36:15;;;;;;;;;;;22.10;99.90;;;;;;5079614;28;19912;-70
2023/03/26 12:38:42;;;;;;;;;;;22.10;99.90;;;;;;5080279;28;19966;-68
2023/03/26 12:41:10;;;;;;;;;;;22.00;99.90;;;;;;5095075;28;19916;-68
2023/03/26 12:43:40;;;;;;;;;;;22.10;99.90;;;;;;5079535;28;19908;-70
2023/03/26 12:46:25;;;;;;;;;;;22.10;99.90;;;;;;5100154;28;20675;-69
2023/03/26 12:48:56;;;;;;;;;;;22.10;99.90;;;;;;5099315;28;19951;-68
2023/03/26 12:51:23;;;;;;;;;;;22.00;99.90;;;;;;5099137;28;19908;-69
2023/03/26 12:53:50;;;;;;;;;;;22.10;99.90;;;;;;5099303;28;20011;-69
2023/03/26 12:56:26;;;;;;;;;;;22.00;99.90;;;;;;5100340;28;19907;-69
2023/03/26 12:59:10;;;;;;;;;;;22.10;99.90;;;;;;5081184;28;19908;-71
2023/03/26 13:01:46;;;;;;;;;;;22.00;99.90;;;;;;5098300;28;19916;-71
2023/03/26 13:04:23;;;;;;;;;;;22.00;99.90;;;;;;5099927;28;19908;-69
2023/03/26 13:06:57;;;;;;;;;;;22.00;99.90;;;;;;5098595;28;19915;-70
2023/03/26 13:09:29;;;;;;;;;;;22.00;99.90;;;;;;5099642;28;19915;-69
2023/03/26 13:12:14;;;;;;;;;;;21.90;99.90;;;;;;5098791;28;19908;-68
2023/03/26 13:14:43;;;;;;;;;;;21.90;99.90;;;;;;5097791;28;19968;-68
2023/03/26 13:17:21;;;;;;;;;;;21.90;99.90;;;;;;5099497;28;19907;-70
2023/03/26 13:19:57;;;;;;;;;;;21.80;99.90;;;;;;5098765;28;19914;-69
2023/03/26 13:22:36;;;;;;;;;;;21.80;99.90;;;;;;5103990;28;19923;-68
2023/03/26 13:25:29;;;;;;;;;;;21.80;99.90;;;;;;5103574;28;20002;-66
2023/03/26 13:28:08;;;;;;;;;;;21.80;99.90;;;;;;5102502;28;19915;-68
2023/03/26 13:30:43;;;;;;;;;;;21.70;99.90;;;;;;5101031;28;19923;-67
2023/03/26 13:33:34;;;;;;;;;;;21.70;99.90;;;;;;5102047;28;19919;-69
2023/03/26 13:36:04;;;;;;;;;;;21.70;99.90;;;;;;5100034;28;20270;-70
2023/03/26 13:38:34;;;;;;;;;;;21.70;99.90;;;;;;5103163;28;19969;-69
2023/03/26 13:41:09;;;;;;;;;;;21.80;99.90;;;;;;5101119;28;19973;-70
2023/03/26 13:43:59;;;;;;;;;;;21.70;99.90;;;;;;5102765;28;19907;-70
2023/03/26 13:46:30;;;;;;;;;;;21.70;99.90;;;;;;5098518;28;19973;-70
2023/03/26 13:49:02;;;;;;;;;;;21.70;99.90;;;;;;5100078;28;20317;-70
2023/03/26 13:51:28;;;;;;;;;;;21.70;99.90;;;;;;5088742;28;20298;-70
2023/03/26 13:53:59;;;;;;;;;;;21.70;99.90;;;;;;5082509;28;19909;-69
2023/03/26 13:56:30;;;;;;;;;;;21.70;99.90;;;;;;5085793;28;19916;-68
2023/03/26 13:59:00;;;;;;;;;;;21.70;99.90;;;;;;5102707;28;19965;-69
2023/03/26 14:01:44;;;;;;;;;;;21.70;99.90;;;;;;5102187;28;20010;-69
2023/03/26 14:04:24;;;;;;;;;;;21.60;99.90;;;;;;5103047;28;19931;-69
2023/03/26 14:06:57;;;;;;;;;;;21.60;99.90;;;;;;5102363;28;19908;-67
2023/03/26 14:09:41;;;;;;;;;;;21.60;99.90;;;;;;5101992;28;20006;-69
2023/03/26 14:12:15;;;;;;;;;;;21.60;99.90;;;;;;5103092;28;20373;-69
2023/03/26 14:14:47;;;;;;;;;;;21.50;99.90;;;;;;5102153;28;19908;-70
2023/03/26 14:17:20;;;;;;;;;;;21.50;99.90;;;;;;5103176;28;19908;-69
2023/03/26 14:19:50;;;;;;;;;;;21.50;99.90;;;;;;5101229;28;19960;-70
2023/03/26 14:22:35;;;;;;;;;;;21.50;99.90;;;;;;5102627;28;19916;-70
2023/03/26 14:25:20;;;;;;;;;;;21.50;99.90;;;;;;5103233;28;20336;-68
2023/03/26 14:27:57;;;;;;;;;;;21.50;99.90;;;;;;5101344;28;19907;-69
2023/03/26 14:30:30;;;;;;;;;;;21.40;99.90;;;;;;5102903;28;20328;-68
2023/03/26 14:33:32;;;;;;;;;;;21.30;99.90;;;;;;5101705;28;19908;-69
2023/03/26 14:36:05;;;;;;;;;;;21.30;99.90;;;;;;5039131;28;19913;-68
2023/03/26 14:38:50;;;;;;;;;;;21.30;99.90;;;;;;5092510;28;20272;-70
2023/03/26 14:41:39;;;;;;;;;;;21.40;99.90;;;;;;5102316;28;19955;-69
2023/03/26 14:44:24;;;;;;;;;;;21.30;99.90;;;;;;5094040;28;19908;-69